Time;durP1;ratioP1;P1;durP2;ratioP2;P2;SDS_P1;SDS_P2;PMS_P1;PMS_P2;Temp;Humidity;BMP_temperature;BMP_pressure;BME280_temperature;BME280_humidity;BME280_pressure;Samples;Min_cycle;Max_cycle;Signal;HPM_P1;HPM_P2
2022/09/04 00:02:12;;;;;;;2.93;1.50;;;15.40;99.90;;;;;;4896577;29;20412;-56
2022/09/04 00:05:01;;;;;;;2.20;1.67;;;15.40;99.90;;;;;;4889380;29;20456;-55
2022/09/04 00:07:28;;;;;;;4.53;1.53;;;15.40;99.90;;;;;;4896441;29;20405;-55
2022/09/04 00:10:15;;;;;;;1.87;1.40;;;15.30;99.90;;;;;;4888494;29;20566;-56
2022/09/04 00:12:48;;;;;;;1.73;1.63;;;15.30;99.90;;;;;;4877423;29;20432;-56
2022/09/04 00:15:38;;;;;;;3.90;1.40;;;15.30;99.90;;;;;;4881740;29;20457;-54
2022/09/04 00:18:33;;;;;;;1.60;1.30;;;15.30;99.90;;;;;;4895849;29;20472;-56
2022/09/04 00:21:15;;;;;;;2.33;1.37;;;15.30;99.90;;;;;;4896682;29;20467;-56
2022/09/04 00:23:49;;;;;;;2.20;1.40;;;15.30;99.90;;;;;;4893688;29;20466;-57
2022/09/04 00:26:43;;;;;;;1.37;1.27;;;15.30;99.90;;;;;;4892000;29;20462;-56
2022/09/04 00:29:35;;;;;;;2.90;1.30;;;15.30;99.90;;;;;;4895951;29;20424;-55
2022/09/04 00:32:17;;;;;;;1.80;1.70;;;15.30;99.90;;;;;;4885477;29;20444;-56
2022/09/04 00:34:49;;;;;;;3.00;1.50;;;15.30;99.90;;;;;;4891107;29;20447;-55
2022/09/04 00:37:20;;;;;;;2.10;1.50;;;15.20;99.90;;;;;;4887156;29;20440;-55
2022/09/04 00:40:21;;;;;;;3.50;1.50;;;15.20;99.90;;;;;;4877424;29;20528;-55
2022/09/04 00:43:15;;;;;;;4.23;1.70;;;15.10;99.90;;;;;;4819628;29;20435;-55
2022/09/04 00:46:03;;;;;;;7.80;1.67;;;15.10;99.90;;;;;;4880815;29;20674;-55
2022/09/04 00:48:29;;;;;;;1.80;1.40;;;15.10;99.90;;;;;;4895797;29;20446;-55
2022/09/04 00:51:23;;;;;;;4.40;1.43;;;15.10;99.90;;;;;;4896009;29;20432;-55
2022/09/04 00:53:54;;;;;;;1.77;1.33;;;15.00;99.90;;;;;;4895964;29;20278;-56
2022/09/04 00:56:54;;;;;;;3.37;1.60;;;15.00;99.90;;;;;;4891752;29;20463;-55
2022/09/04 00:59:51;;;;;;;3.30;1.77;;;15.00;99.90;;;;;;4873413;29;20487;-56
2022/09/04 01:03:05;;;;;;;1.60;1.40;;;15.00;99.90;;;;;;4880083;29;20479;-55
2022/09/04 01:06:02;;;;;;;1.80;1.40;;;15.00;99.90;;;;;;4831992;29;20447;-56
2022/09/04 01:08:40;;;;;;;1.40;1.30;;;15.00;99.90;;;;;;4895644;29;20417;-56
2022/09/04 01:11:06;;;;;;;2.70;1.60;;;15.00;99.90;;;;;;4895791;29;20400;-56
2022/09/04 01:13:58;;;;;;;8.63;1.67;;;14.90;99.90;;;;;;4882729;29;20448;-56
2022/09/04 01:16:36;;;;;;;2.40;1.47;;;14.90;99.90;;;;;;4893943;29;20678;-55
2022/09/04 01:19:32;;;;;;;2.40;1.67;;;14.90;99.90;;;;;;4895790;29;20506;-55
2022/09/04 01:22:40;;;;;;;2.43;1.57;;;14.80;99.90;;;;;;4874153;29;20437;-55
2022/09/04 01:25:33;;;;;;;1.53;1.43;;;14.80;99.90;;;;;;4879079;29;20424;-56
2022/09/04 01:28:09;;;;;;;1.90;1.67;;;14.80;99.90;;;;;;4861892;29;20569;-55
2022/09/04 01:30:57;;;;;;;5.40;1.60;;;14.70;99.90;;;;;;4871935;29;20491;-55
2022/09/04 01:33:33;;;;;;;3.63;1.40;;;14.70;99.90;;;;;;4894827;29;20503;-55
2022/09/04 01:36:21;;;;;;;1.30;1.20;;;14.80;99.90;;;;;;4879580;29;20440;-55
2022/09/04 01:38:54;;;;;;;1.53;1.43;;;14.70;99.90;;;;;;4880051;29;20480;-55
2022/09/04 01:41:28;;;;;;;3.90;2.10;;;14.70;99.90;;;;;;4879889;29;20416;-54
2022/09/04 01:43:54;;;;;;;3.43;1.50;;;14.70;99.90;;;;;;4880242;29;20429;-51
2022/09/04 01:46:33;;;;;;;1.93;1.50;;;14.70;99.90;;;;;;4879354;29;20449;-51
2022/09/04 01:49:05;;;;;;;1.50;1.40;;;14.60;99.90;;;;;;4880132;29;20268;-51
2022/09/04 01:51:38;;;;;;;3.60;1.73;;;14.60;99.90;;;;;;4880062;29;20876;-54
2022/09/04 01:54:21;;;;;;;1.97;1.70;;;14.50;99.90;;;;;;4880048;29;20851;-56
2022/09/04 01:56:53;;;;;;;1.67;1.33;;;14.50;99.90;;;;;;4879157;29;20463;-55
2022/09/04 01:59:28;;;;;;;2.33;1.70;;;14.40;99.90;;;;;;4879584;29;20524;-55
2022/09/04 02:02:00;;;;;;;1.93;1.43;;;14.40;99.90;;;;;;4883505;29;20927;-56
2022/09/04 02:04:41;;;;;;;4.87;2.00;;;14.40;99.90;;;;;;4879668;29;20446;-55
2022/09/04 02:07:29;;;;;;;3.00;1.50;;;14.40;99.90;;;;;;4878842;29;20947;-55
2022/09/04 02:10:31;;;;;;;1.83;1.40;;;14.40;99.90;;;;;;4879742;29;20421;-55
2022/09/04 02:13:16;;;;;;;5.00;1.57;;;14.40;99.90;;;;;;4879453;29;20509;-53
2022/09/04 02:15:57;;;;;;;1.67;1.57;;;14.30;99.90;;;;;;4883485;29;20458;-55
2022/09/04 02:18:44;;;;;;;2.60;1.70;;;14.30;99.90;;;;;;4898146;29;20887;-54
2022/09/04 02:21:31;;;;;;;2.50;1.67;;;14.30;99.90;;;;;;4898238;29;20419;-55
2022/09/04 02:24:09;;;;;;;4.50;1.50;;;14.30;99.90;;;;;;4898117;29;20941;-56
2022/09/04 02:26:53;;;;;;;1.93;1.70;;;14.30;99.90;;;;;;4886848;29;20892;-55
2022/09/04 02:29:24;;;;;;;4.23;1.70;;;14.20;99.90;;;;;;4878305;29;20523;-55
2022/09/04 02:31:50;;;;;;;1.97;1.70;;;14.30;99.90;;;;;;4879244;29;20856;-52
2022/09/04 02:34:48;;;;;;;3.23;1.50;;;14.30;99.90;;;;;;4879123;29;20445;-51
2022/09/04 02:37:35;;;;;;;1.70;1.50;;;14.20;99.90;;;;;;4881613;29;20196;-51
2022/09/04 02:40:13;;;;;;;1.60;1.50;;;14.20;99.90;;;;;;4879105;29;20465;-51
2022/09/04 02:42:55;;;;;;;1.73;1.40;;;14.10;99.90;;;;;;4879062;29;20508;-51
2022/09/04 02:45:32;;;;;;;2.23;1.60;;;14.10;99.90;;;;;;4878407;29;20891;-51
2022/09/04 02:48:13;;;;;;;2.37;1.70;;;14.10;99.90;;;;;;4879194;29;20425;-51
2022/09/04 02:50:51;;;;;;;5.00;1.43;;;14.10;99.90;;;;;;4878897;29;20457;-52
2022/09/04 02:53:40;;;;;;;2.37;1.93;;;14.00;99.90;;;;;;4877830;29;20516;-51
2022/09/04 02:56:40;;;;;;;2.20;1.67;;;14.00;99.90;;;;;;4877869;29;20467;-51
2022/09/04 02:59:33;;;;;;;4.10;1.83;;;14.00;99.90;;;;;;4878758;29;20475;-51
2022/09/04 03:02:04;;;;;;;2.90;1.83;;;13.90;99.90;;;;;;4876751;29;20468;-51
2022/09/04 03:04:50;;;;;;;2.43;1.33;;;13.90;99.90;;;;;;4878686;29;20466;-51
2022/09/04 03:07:39;;;;;;;3.53;1.60;;;13.80;99.90;;;;;;4878671;29;20415;-51
2022/09/04 03:10:14;;;;;;;4.60;1.70;;;13.80;99.90;;;;;;4866329;29;20461;-51
2022/09/04 03:13:38;;;;;;;2.50;1.33;;;13.70;99.90;;;;;;4894808;29;20538;-51
2022/09/04 03:16:27;;;;;;;2.43;1.80;;;13.70;99.90;;;;;;4839333;29;20423;-51
2022/09/04 03:18:58;;;;;;;1.50;1.40;;;13.70;99.90;;;;;;4878750;29;20970;-51
2022/09/04 03:21:32;;;;;;;2.60;1.53;;;13.70;99.90;;;;;;4887457;29;20455;-51
2022/09/04 03:24:09;;;;;;;1.60;1.50;;;13.70;99.90;;;;;;4877719;29;20455;-51
2022/09/04 03:26:38;;;;;;;3.43;1.60;;;13.70;99.90;;;;;;4878197;29;20535;-51
2022/09/04 03:29:34;;;;;;;3.33;2.20;;;13.70;99.90;;;;;;4896603;29;20586;-52
2022/09/04 03:32:13;;;;;;;2.37;1.70;;;13.60;99.90;;;;;;4886059;29;20489;-51
2022/09/04 03:34:59;;;;;;;6.53;1.90;;;13.60;99.90;;;;;;4878243;29;20405;-51
2022/09/04 03:37:36;;;;;;;10.07;1.93;;;13.60;99.90;;;;;;4883293;29;20450;-51
2022/09/04 03:40:24;;;;;;;1.93;1.73;;;13.60;99.90;;;;;;4893122;29;20943;-51
2022/09/04 03:43:27;;;;;;;5.37;1.90;;;13.60;99.90;;;;;;4896274;29;20443;-52
2022/09/04 03:45:52;;;;;;;2.27;1.73;;;13.60;99.90;;;;;;4896726;29;20507;-51
2022/09/04 03:48:37;;;;;;;1.77;1.63;;;13.60;99.90;;;;;;4896325;29;20979;-51
2022/09/04 03:51:19;;;;;;;1.93;1.80;;;13.50;99.90;;;;;;4888588;29;20507;-51
2022/09/04 03:54:25;;;;;;;4.07;1.80;;;13.40;99.90;;;;;;4896331;29;20412;-51
2022/09/04 03:57:08;;;;;;;2.60;1.60;;;13.40;99.90;;;;;;4896206;29;20419;-51
2022/09/04 03:59:59;;;;;;;3.30;2.07;;;13.40;99.90;;;;;;4896339;29;20558;-54
2022/09/04 04:02:28;;;;;;;2.70;1.80;;;13.40;99.90;;;;;;4894272;29;20447;-51
2022/09/04 04:05:08;;;;;;;4.13;1.83;;;13.30;99.90;;;;;;4892487;29;20483;-51
2022/09/04 04:08:02;;;;;;;2.27;1.80;;;13.30;99.90;;;;;;4891768;29;20474;-51
2022/09/04 04:10:47;;;;;;;2.10;1.50;;;13.30;99.90;;;;;;4881538;29;20452;-51
2022/09/04 04:13:35;;;;;;;4.40;1.83;;;13.30;99.90;;;;;;4877610;29;20441;-51
2022/09/04 04:16:24;;;;;;;5.00;2.10;;;13.30;99.90;;;;;;4880710;29;20456;-51
2022/09/04 04:18:55;;;;;;;3.67;1.60;;;13.30;99.90;;;;;;4893311;29;20475;-51
2022/09/04 04:21:56;;;;;;;2.03;1.73;;;13.20;99.90;;;;;;4896366;29;20428;-51
2022/09/04 04:24:37;;;;;;;1.70;1.60;;;13.20;99.90;;;;;;4879421;29;20456;-51
2022/09/04 04:27:06;;;;;;;3.23;1.70;;;13.10;99.90;;;;;;4877815;29;20504;-51
2022/09/04 04:29:47;;;;;;;3.30;1.90;;;13.10;99.90;;;;;;4876540;29;20460;-51
2022/09/04 04:32:16;;;;;;;3.00;1.67;;;13.00;1.00;;;;;;4877440;29;20417;-51
2022/09/04 04:35:03;;;;;;;2.10;1.83;;;13.00;1.00;;;;;;4877328;29;20491;-51
2022/09/04 04:37:32;;;;;;;4.30;2.10;;;12.90;1.00;;;;;;4877408;29;20464;-51
2022/09/04 04:40:06;;;;;;;1.90;1.80;;;12.90;1.00;;;;;;4876440;29;20484;-51
2022/09/04 04:42:57;;;;;;;2.10;1.90;;;12.80;1.00;;;;;;4877414;29;20413;-51
2022/09/04 04:48:41;;;;;;;3.57;1.90;;;12.70;1.00;;;;;;4877313;29;20493;-51
2022/09/04 04:51:40;;;;;;;2.20;1.70;;;12.70;1.00;;;;;;4858828;29;20774;-55
2022/09/04 04:54:06;;;;;;;3.20;2.20;;;12.70;1.00;;;;;;4858827;29;20859;-55
2022/09/04 04:56:49;;;;;;;4.43;1.97;;;12.80;1.00;;;;;;4859356;29;21002;-54
2022/09/04 04:59:38;;;;;;;2.43;1.93;;;12.90;1.00;;;;;;4868604;29;20273;-54
2022/09/04 05:02:27;;;;;;;2.67;1.90;;;12.90;1.00;;;;;;4899811;29;20463;-54
2022/09/04 05:05:01;;;;;;;3.47;1.77;;;12.90;1.00;;;;;;4899374;29;20801;-55
2022/09/04 05:07:59;;;;;;;2.33;1.70;;;12.90;1.00;;;;;;4899825;29;20428;-51
2022/09/04 05:10:37;;;;;;;2.13;1.77;;;13.00;1.00;;;;;;4883840;29;20760;-51
2022/09/04 05:13:11;;;;;;;2.10;1.90;;;13.10;1.00;;;;;;4880103;29;20515;-51
2022/09/04 05:15:50;;;;;;;2.40;1.70;;;13.20;1.00;;;;;;4894636;29;20454;-52
2022/09/04 05:18:50;;;;;;;6.03;1.70;;;13.20;1.00;;;;;;4899615;29;20450;-51
2022/09/04 05:21:35;;;;;;;2.13;1.90;;;13.30;1.00;;;;;;4861969;29;20525;-54
2022/09/04 05:24:19;;;;;;;3.27;1.80;;;13.30;1.00;;;;;;4861890;29;20775;-52
2022/09/04 05:27:13;;;;;;;4.63;2.00;;;13.40;99.90;;;;;;4861724;29;20435;-51
2022/09/04 05:30:15;;;;;;;1.97;1.77;;;13.50;99.90;;;;;;4851452;29;20459;-51
2022/09/04 05:32:43;;;;;;;3.60;1.77;;;13.60;99.90;;;;;;4899150;29;20816;-51
2022/09/04 05:35:12;;;;;;;1.97;1.77;;;13.60;99.90;;;;;;4899228;29;20404;-51
2022/09/04 05:37:49;;;;;;;3.20;1.73;;;13.70;99.90;;;;;;4895832;29;20439;-51
2022/09/04 05:40:27;;;;;;;1.87;1.63;;;13.80;99.90;;;;;;4898884;29;20470;-51
2022/09/04 05:43:08;;;;;;;2.70;1.83;;;13.80;99.90;;;;;;4898918;29;20510;-51
2022/09/04 05:46:03;;;;;;;1.73;1.63;;;13.80;99.90;;;;;;4880642;29;20978;-51
2022/09/04 05:49:03;;;;;;;3.80;1.73;;;13.90;99.90;;;;;;4879225;29;20504;-51
2022/09/04 05:51:53;;;;;;;3.33;1.90;;;14.00;99.90;;;;;;4858126;29;20432;-51
2022/09/04 05:54:44;;;;;;;1.97;1.53;;;14.20;99.90;;;;;;4861480;29;20490;-51
2022/09/04 05:57:23;;;;;;;1.70;1.60;;;14.30;99.90;;;;;;4864447;29;20497;-51
2022/09/04 06:00:19;;;;;;;1.87;1.73;;;14.40;99.90;;;;;;4879137;29;20486;-51
2022/09/04 06:02:45;;;;;;;1.70;1.60;;;14.50;99.90;;;;;;4860774;29;20460;-51
2022/09/04 06:05:35;;;;;;;3.37;2.07;;;14.70;99.90;;;;;;4864905;29;20464;-51
2022/09/04 06:08:16;;;;;;;2.53;1.67;;;14.80;99.90;;;;;;4878851;29;20248;-51
2022/09/04 06:10:44;;;;;;;1.60;1.50;;;15.00;99.90;;;;;;4879874;29;20467;-51
2022/09/04 06:13:31;;;;;;;2.30;1.70;;;15.30;99.90;;;;;;4879764;29;20457;-54
2022/09/04 06:16:02;;;;;;;4.40;2.00;;;15.50;99.90;;;;;;4879773;29;20421;-55
2022/09/04 06:18:43;;;;;;;1.73;1.60;;;15.70;99.90;;;;;;4878624;29;20456;-55
2022/09/04 06:21:11;;;;;;;2.37;2.10;;;15.90;99.90;;;;;;4879692;29;20883;-57
2022/09/04 06:24:09;;;;;;;1.70;1.60;;;16.10;99.90;;;;;;4893244;29;20444;-55
2022/09/04 06:26:50;;;;;;;1.90;1.70;;;16.20;99.90;;;;;;4884984;29;20448;-55
2022/09/04 06:29:40;;;;;;;3.20;1.80;;;16.40;99.90;;;;;;4878174;29;20794;-54
2022/09/04 06:32:30;;;;;;;2.43;1.70;;;16.60;99.90;;;;;;4879450;29;20402;-55
2022/09/04 06:35:08;;;;;;;4.20;2.00;;;16.70;99.90;;;;;;4878366;29;20516;-55
2022/09/04 06:38:02;;;;;;;2.50;1.90;;;16.90;99.90;;;;;;4879566;29;20416;-55
2022/09/04 06:40:37;;;;;;;3.13;1.90;;;17.10;99.90;;;;;;4879408;29;20859;-55
2022/09/04 06:43:31;;;;;;;1.70;1.60;;;17.20;99.90;;;;;;4879157;29;20448;-55
2022/09/04 06:46:03;;;;;;;2.77;2.00;;;17.30;99.90;;;;;;4851610;29;20457;-56
2022/09/04 06:48:37;;;;;;;2.40;1.80;;;17.50;99.90;;;;;;4879103;29;20437;-56
2022/09/04 06:51:06;;;;;;;2.90;1.83;;;17.70;99.90;;;;;;4875020;29;20461;-56
2022/09/04 06:54:06;;;;;;;7.87;2.03;;;17.90;99.90;;;;;;4878810;29;20473;-55
2022/09/04 06:56:46;;;;;;;3.63;2.20;;;18.10;99.90;;;;;;4882305;29;20436;-56
2022/09/04 06:59:26;;;;;;;3.30;1.67;;;18.30;99.90;;;;;;4878696;29;20559;-56
2022/09/04 07:02:20;;;;;;;2.77;1.83;;;18.50;99.90;;;;;;4878214;29;20468;-55
2022/09/04 07:04:58;;;;;;;5.87;2.07;;;18.70;99.90;;;;;;4874200;29;20527;-63
2022/09/04 07:07:24;;;;;;;2.13;1.87;;;19.00;99.90;;;;;;4868362;29;20465;-56
2022/09/04 07:09:59;;;;;;;1.60;1.50;;;19.30;99.90;;;;;;4877256;29;20461;-56
2022/09/04 07:12:57;;;;;;;2.40;1.90;;;19.40;99.90;;;;;;4875049;29;20244;-57
2022/09/04 07:15:56;;;;;;;5.33;1.90;;;19.60;99.90;;;;;;4847116;29;20439;-56
2022/09/04 07:18:57;;;;;;;2.40;2.03;;;19.90;99.90;;;;;;4860096;29;20561;-56
2022/09/04 07:21:51;;;;;;;5.83;2.00;;;20.10;99.90;;;;;;4874292;29;20452;-56
2022/09/04 07:24:31;;;;;;;6.33;2.10;;;20.30;99.90;;;;;;4877618;29;20425;-55
2022/09/04 07:27:33;;;;;;;3.50;2.33;;;20.60;99.90;;;;;;4879977;29;20452;-56
2022/09/04 07:30:06;;;;;;;3.30;2.10;;;21.10;99.90;;;;;;4895143;29;20473;-54
2022/09/04 07:32:49;;;;;;;6.93;2.47;;;21.20;99.90;;;;;;4896088;29;20444;-56
2022/09/04 07:35:36;;;;;;;4.80;2.33;;;21.50;99.90;;;;;;4890718;29;20462;-56
2022/09/04 07:38:20;;;;;;;5.20;2.13;;;21.80;99.90;;;;;;4896181;29;20462;-56
2022/09/04 07:40:59;;;;;;;4.33;2.40;;;22.00;99.90;;;;;;4896677;29;20821;-56
2022/09/04 07:43:49;;;;;;;3.97;2.23;;;22.10;99.90;;;;;;4896684;29;20416;-56
2022/09/04 07:46:29;;;;;;;4.53;2.63;;;22.40;99.90;;;;;;4886659;29;20428;-56
2022/09/04 07:49:08;;;;;;;4.07;2.73;;;22.80;99.90;;;;;;4895719;29;20439;-56
2022/09/04 07:51:46;;;;;;;3.00;2.40;;;22.70;99.90;;;;;;4878010;29;20438;-52
2022/09/04 07:54:42;;;;;;;10.97;2.90;;;22.70;99.90;;;;;;4878368;29;20447;-52
2022/09/04 07:57:36;;;;;;;4.57;2.73;;;22.70;99.90;;;;;;4880079;29;20430;-52
2022/09/04 08:00:09;;;;;;;3.97;2.97;;;23.00;99.90;;;;;;4882063;29;20567;-52
2022/09/04 08:03:15;;;;;;;8.43;2.83;;;23.40;99.90;;;;;;4896541;29;20459;-52
2022/09/04 08:06:15;;;;;;;3.90;2.90;;;23.70;99.90;;;;;;4856731;29;20681;-52
2022/09/04 08:09:04;;;;;;;2.87;2.53;;;23.70;99.90;;;;;;4856814;29;20606;-52
2022/09/04 08:11:33;;;;;;;5.43;2.80;;;23.70;99.90;;;;;;4882363;29;20445;-52
2022/09/04 08:14:26;;;;;;;3.83;2.80;;;24.00;99.90;;;;;;4896514;29;20450;-53
2022/09/04 08:16:55;;;;;;;8.83;3.20;;;24.30;99.90;;;;;;4896288;29;20499;-52
2022/09/04 08:19:40;;;;;;;3.10;2.73;;;24.40;99.90;;;;;;4896089;29;20475;-52
2022/09/04 08:22:15;;;;;;;6.40;2.90;;;24.60;99.90;;;;;;4895989;29;20424;-52
2022/09/04 08:24:59;;;;;;;7.40;2.70;;;24.80;99.90;;;;;;4896035;29;20423;-52
2022/09/04 08:27:54;;;;;;;5.03;3.57;;;24.90;99.90;;;;;;4890241;29;20480;-52
2022/09/04 08:30:20;;;;;;;4.27;2.90;;;25.10;99.90;;;;;;4877561;29;20421;-52
2022/09/04 08:32:46;;;;;;;7.37;3.10;;;25.20;99.90;;;;;;4873208;29;21333;-52
2022/09/04 08:35:20;;;;;;;4.13;3.30;;;25.60;99.90;;;;;;4880738;29;20472;-52
2022/09/04 08:37:47;;;;;;;3.37;3.07;;;26.10;99.90;;;;;;4881621;29;20238;-52
2022/09/04 08:40:28;;;;;;;3.50;2.80;;;26.30;99.90;;;;;;4880948;29;20480;-52
2022/09/04 08:43:26;;;;;;;3.90;3.00;;;26.20;99.90;;;;;;4881466;29;20468;-52
2022/09/04 08:46:34;;;;;;;3.77;3.23;;;26.20;99.90;;;;;;4881450;29;20452;-52
2022/09/04 08:49:22;;;;;;;3.50;3.17;;;26.50;99.90;;;;;;4881322;29;21246;-52
2022/09/04 08:52:22;;;;;;;3.90;3.10;;;26.70;99.90;;;;;;4881290;29;20457;-52
2022/09/04 08:55:03;;;;;;;4.80;3.33;;;26.80;99.90;;;;;;4859992;29;20445;-52
2022/09/04 08:57:38;;;;;;;5.10;3.67;;;26.70;99.90;;;;;;4881003;29;20436;-52
2022/09/04 09:00:14;;;;;;;3.47;2.93;;;26.70;99.90;;;;;;4881057;29;20514;-53
2022/09/04 09:02:55;;;;;;;3.80;3.40;;;26.80;99.90;;;;;;4880836;29;20424;-52
2022/09/04 09:06:05;;;;;;;6.90;3.50;;;26.70;99.90;;;;;;4880975;29;20416;-52
2022/09/04 09:09:07;;;;;;;8.10;3.30;;;26.40;99.90;;;;;;4865391;29;20451;-52
2022/09/04 09:12:07;;;;;;;5.33;3.63;;;26.30;99.90;;;;;;4880861;29;20443;-52
2022/09/04 09:14:55;;;;;;;4.23;3.33;;;26.30;99.90;;;;;;4880743;29;20409;-53
2022/09/04 09:17:52;;;;;;;5.80;3.43;;;26.20;99.90;;;;;;4880684;29;20489;-52
2022/09/04 09:21:02;;;;;;;8.40;3.40;;;26.00;99.90;;;;;;4862246;29;20485;-52
2022/09/04 09:23:43;;;;;;;5.30;3.50;;;25.80;99.90;;;;;;4862132;29;20470;-52
2022/09/04 09:26:25;;;;;;;6.70;3.70;;;25.50;99.90;;;;;;4861874;29;20444;-52
2022/09/04 09:28:57;;;;;;;4.33;3.53;;;25.10;99.90;;;;;;4866415;29;20561;-52
2022/09/04 09:31:38;;;;;;;6.17;3.20;;;24.90;99.90;;;;;;4880457;29;20519;-52
2022/09/04 09:34:38;;;;;;;7.83;3.47;;;24.80;99.90;;;;;;4879958;29;20951;-52
2022/09/04 09:37:24;;;;;;;7.83;3.63;;;24.60;99.90;;;;;;4880458;29;20409;-52
2022/09/04 09:40:11;;;;;;;3.40;3.10;;;24.40;99.90;;;;;;4879968;29;20523;-52
2022/09/04 09:43:14;;;;;;;5.47;4.00;;;24.20;99.90;;;;;;4880414;29;20425;-57
2022/09/04 09:46:19;;;;;;;6.90;3.80;;;24.00;99.90;;;;;;4860942;29;20911;-56
2022/09/04 09:49:03;;;;;;;4.07;3.57;;;23.70;99.90;;;;;;4861799;29;20417;-56
2022/09/04 09:51:34;;;;;;;5.03;3.50;;;23.40;99.90;;;;;;4861324;29;20461;-56
2022/09/04 09:54:33;;;;;;;4.10;3.67;;;23.40;99.90;;;;;;4864735;29;20429;-57
2022/09/04 09:57:19;;;;;;;5.13;3.40;;;23.40;99.90;;;;;;4880110;29;20410;-57
2022/09/04 10:00:04;;;;;;;10.23;3.30;;;23.40;99.90;;;;;;4880120;29;20942;-57
2022/09/04 10:03:00;;;;;;;4.00;3.27;;;23.30;99.90;;;;;;4879720;29;20429;-56
2022/09/04 10:05:56;;;;;;;13.50;3.50;;;23.40;99.90;;;;;;4879975;29;21094;-58
2022/09/04 10:08:47;;;;;;;3.77;2.83;;;23.50;99.90;;;;;;4879178;29;20456;-56
2022/09/04 10:11:22;;;;;;;3.60;3.17;;;23.60;99.90;;;;;;4879600;29;20417;-56
2022/09/04 10:14:17;;;;;;;4.13;3.73;;;23.80;99.90;;;;;;4879923;29;20457;-56
2022/09/04 10:17:06;;;;;;;6.30;3.40;;;23.90;99.90;;;;;;4863158;29;20444;-57
2022/09/04 10:19:52;;;;;;;2.93;2.73;;;23.90;99.90;;;;;;4877736;29;20476;-55
2022/09/04 10:22:33;;;;;;;3.40;2.83;;;24.20;99.90;;;;;;4874626;29;20452;-59
2022/09/04 10:25:40;;;;;;;5.77;3.00;;;24.40;99.90;;;;;;4879628;29;20413;-56
2022/09/04 10:28:38;;;;;;;3.57;3.27;;;24.70;99.90;;;;;;4831639;29;20493;-57
2022/09/04 10:31:25;;;;;;;6.60;3.53;;;25.40;99.90;;;;;;4862940;29;20426;-57
2022/09/04 10:34:12;;;;;;;7.13;3.00;;;25.80;99.90;;;;;;4879487;29;20855;-58
2022/09/04 10:36:40;;;;;;;3.70;3.23;;;26.10;99.90;;;;;;4879131;29;20428;-57
2022/09/04 10:42:44;;;;;;;8.50;3.03;;;27.30;99.90;;;;;;4878794;29;20440;-56
2022/09/04 10:45:37;;;;;;;4.43;2.90;;;27.80;99.90;;;;;;4877571;29;20433;-57
2022/09/04 10:48:14;;;;;;;3.10;2.90;;;28.30;99.90;;;;;;4879068;29;20785;-57
2022/09/04 10:51:19;;;;;;;2.90;2.60;;;28.80;99.90;;;;;;4878882;29;20431;-55
2022/09/04 10:54:13;;;;;;;2.90;2.70;;;29.30;99.90;;;;;;4875338;29;20453;-57
2022/09/04 10:57:13;;;;;;;4.80;3.47;;;30.10;99.90;;;;;;4878425;29;20448;-56
2022/09/04 10:59:56;;;;;;;3.70;2.70;;;30.60;99.90;;;;;;4877186;29;20527;-57
2022/09/04 11:02:40;;;;;;;3.53;2.63;;;30.60;99.90;;;;;;4878461;29;20445;-56
2022/09/04 11:05:14;;;;;;;6.83;2.40;;;30.90;99.90;;;;;;4875985;29;20927;-57
2022/09/04 11:07:55;;;;;;;2.97;2.77;;;31.00;99.90;;;;;;4878236;29;20496;-57
2022/09/04 11:10:33;;;;;;;3.67;2.63;;;31.10;99.90;;;;;;4878457;29;20518;-57
2022/09/04 11:13:36;;;;;;;6.60;2.67;;;31.50;99.90;;;;;;4878335;29;20847;-55
2022/09/04 11:16:37;;;;;;;5.73;2.90;;;31.90;99.90;;;;;;4878307;29;20559;-57
2022/09/04 11:19:32;;;;;;;2.80;2.60;;;32.10;99.90;;;;;;4867517;29;20523;-55
2022/09/04 11:21:58;;;;;;;4.37;2.60;;;32.20;99.90;;;;;;4878111;29;20929;-55
2022/09/04 11:24:49;;;;;;;3.30;3.00;;;32.10;99.90;;;;;;4878418;29;20498;-58
2022/09/04 11:27:20;;;;;;;2.67;2.47;;;32.00;99.90;;;;;;4877721;29;20232;-57
2022/09/04 11:29:50;;;;;;;5.30;3.03;;;32.10;99.90;;;;;;4878270;29;20773;-57
2022/09/04 11:32:30;;;;;;;3.63;2.50;;;32.50;99.90;;;;;;4877685;29;20447;-57
2022/09/04 11:35:15;;;;;;;4.20;2.80;;;32.10;99.90;;;;;;4877913;29;20432;-57
2022/09/04 11:38:03;;;;;;;8.20;3.00;;;31.70;99.90;;;;;;4877806;29;20440;-57
2022/09/04 11:40:45;;;;;;;6.03;2.97;;;31.80;99.90;;;;;;4877792;29;20480;-58
2022/09/04 11:43:49;;;;;;;5.63;2.47;;;31.90;99.90;;;;;;4875345;29;20485;-56
2022/09/04 11:46:43;;;;;;;3.20;2.53;;;31.80;99.90;;;;;;4877485;29;20453;-57
2022/09/04 11:49:40;;;;;;;3.30;3.00;;;32.00;99.90;;;;;;4874643;29;20449;-56
2022/09/04 11:52:25;;;;;;;4.30;2.80;;;32.20;99.90;;;;;;4877206;29;20540;-55
2022/09/04 11:55:19;;;;;;;4.63;2.67;;;32.30;99.90;;;;;;4873920;29;21291;-57
2022/09/04 11:58:24;;;;;;;3.30;2.57;;;32.50;99.90;;;;;;4873838;29;20527;-57
2022/09/04 12:01:14;;;;;;;6.93;3.10;;;32.70;99.90;;;;;;4875354;29;20833;-57
2022/09/04 12:04:02;;;;;;;2.80;2.60;;;32.70;99.90;;;;;;4866534;29;20975;-57
2022/09/04 12:07:12;;;;;;;6.80;3.47;;;32.10;99.90;;;;;;4873032;29;20483;-57
2022/09/04 12:10:05;;;;;;;3.43;2.90;;;32.20;99.90;;;;;;4869008;29;20543;-57
2022/09/04 12:12:52;;;;;;;4.27;3.23;;;32.00;99.90;;;;;;4873982;29;20452;-55
2022/09/04 12:15:26;;;;;;;3.20;2.70;;;32.20;99.90;;;;;;4877624;29;20880;-56
2022/09/04 12:18:22;;;;;;;5.20;2.77;;;32.20;99.90;;;;;;4874667;29;20457;-56
2022/09/04 12:21:11;;;;;;;3.43;3.03;;;32.10;99.90;;;;;;4866410;29;20891;-56
2022/09/04 12:23:39;;;;;;;2.97;2.77;;;32.50;99.90;;;;;;4870923;29;20443;-56
2022/09/04 12:26:11;;;;;;;2.70;2.50;;;32.70;99.90;;;;;;4874071;29;20423;-57
2022/09/04 12:29:06;;;;;;;3.63;2.60;;;33.20;99.90;;;;;;4891247;29;20491;-56
2022/09/04 12:31:52;;;;;;;6.60;2.70;;;33.30;99.90;;;;;;4894965;29;20452;-57
2022/09/04 12:34:24;;;;;;;3.50;2.60;;;33.20;99.90;;;;;;4892554;29;20452;-57
2022/09/04 12:37:02;;;;;;;2.60;2.40;;;32.80;99.90;;;;;;4890559;29;20466;-56
2022/09/04 12:39:49;;;;;;;3.10;2.80;;;32.70;99.90;;;;;;4871558;29;20872;-56
2022/09/04 12:42:19;;;;;;;3.50;3.00;;;32.50;99.90;;;;;;4887532;29;20542;-57
2022/09/04 12:45:20;;;;;;;3.63;2.90;;;32.10;99.90;;;;;;4895877;29;20449;-57
2022/09/04 12:48:32;;;;;;;3.97;3.13;;;31.80;99.90;;;;;;4866918;29;20440;-57
2022/09/04 12:51:13;;;;;;;4.17;2.90;;;31.90;99.90;;;;;;4852786;29;20942;-56
2022/09/04 12:53:45;;;;;;;2.80;2.50;;;31.80;99.90;;;;;;4888638;29;20535;-57
2022/09/04 12:56:14;;;;;;;4.73;3.20;;;31.80;99.90;;;;;;4888040;29;20445;-58
2022/09/04 12:59:06;;;;;;;2.90;2.70;;;31.90;99.90;;;;;;4883135;29;20862;-57
2022/09/04 13:01:53;;;;;;;4.87;2.90;;;32.20;99.90;;;;;;4875613;29;20445;-55
2022/09/04 13:04:21;;;;;;;3.63;2.97;;;32.20;99.90;;;;;;4878698;29;20452;-57
2022/09/04 13:07:00;;;;;;;2.90;2.70;;;31.90;99.90;;;;;;4886103;29;20448;-57
2022/09/04 13:09:41;;;;;;;3.03;2.80;;;31.40;99.90;;;;;;4874497;29;20803;-56
2022/09/04 13:12:15;;;;;;;4.00;3.00;;;31.30;99.90;;;;;;4892222;29;20451;-57
2022/09/04 13:14:56;;;;;;;2.90;2.67;;;31.50;99.90;;;;;;4874883;29;20449;-56
2022/09/04 13:17:44;;;;;;;3.77;2.90;;;31.70;99.90;;;;;;4875115;29;20644;-55
2022/09/04 13:20:22;;;;;;;3.17;2.87;;;31.60;99.90;;;;;;4889214;29;20567;-57
2022/09/04 13:23:10;;;;;;;4.80;3.00;;;31.60;99.90;;;;;;4879801;29;20750;-55
2022/09/04 13:26:09;;;;;;;3.53;2.83;;;31.60;99.90;;;;;;4879994;29;20455;-57
2022/09/04 13:28:53;;;;;;;2.90;2.43;;;31.60;99.90;;;;;;4880437;29;20476;-57
2022/09/04 13:31:19;;;;;;;6.27;2.90;;;31.70;99.90;;;;;;4876103;29;20920;-57
2022/09/04 13:33:56;;;;;;;3.90;2.87;;;32.00;99.90;;;;;;4879745;29;20455;-57
2022/09/04 13:36:53;;;;;;;5.60;3.00;;;32.60;99.90;;;;;;4881915;29;20199;-58
2022/09/04 13:39:43;;;;;;;2.63;2.43;;;32.60;99.90;;;;;;4898892;29;20486;-57
2022/09/04 13:42:40;;;;;;;2.97;2.60;;;32.10;99.90;;;;;;4898905;29;20488;-57
2022/09/04 13:45:22;;;;;;;5.70;2.80;;;31.70;99.90;;;;;;4883867;29;20444;-55
2022/09/04 13:47:58;;;;;;;4.13;3.43;;;31.50;99.90;;;;;;4880049;29;20440;-55
2022/09/04 13:50:52;;;;;;;3.50;2.57;;;31.30;99.90;;;;;;4877331;29;20504;-57
2022/09/04 13:53:26;;;;;;;4.07;2.47;;;31.00;99.90;;;;;;4879976;29;20433;-56
2022/09/04 13:55:59;;;;;;;4.40;3.00;;;31.00;99.90;;;;;;4877708;29;20463;-56
2022/09/04 13:58:50;;;;;;;5.63;2.83;;;31.20;99.90;;;;;;4874601;29;20460;-56
2022/09/04 14:01:24;;;;;;;5.30;2.80;;;31.50;99.90;;;;;;4879629;29;20468;-56
2022/09/04 14:03:56;;;;;;;2.73;2.40;;;31.60;99.90;;;;;;4878804;29;20931;-57
2022/09/04 14:06:24;;;;;;;2.63;2.43;;;31.60;99.90;;;;;;4862325;29;20444;-57
2022/09/04 14:08:52;;;;;;;2.63;2.43;;;31.60;99.90;;;;;;4863122;29;21290;-57
2022/09/04 14:11:43;;;;;;;2.93;2.50;;;31.60;99.90;;;;;;4879608;29;20445;-57
2022/09/04 14:14:37;;;;;;;2.60;2.40;;;31.30;99.90;;;;;;4878956;29;20536;-56
2022/09/04 14:17:06;;;;;;;3.57;2.27;;;31.10;99.90;;;;;;4877585;29;20429;-57
2022/09/04 14:19:55;;;;;;;4.30;2.57;;;31.00;99.90;;;;;;4879634;29;20459;-56
2022/09/04 14:22:38;;;;;;;5.33;2.60;;;30.90;99.90;;;;;;4879821;29;20428;-56
2022/09/04 14:25:16;;;;;;;3.23;2.93;;;30.80;99.90;;;;;;4879071;29;20798;-57